sensor_id;sensor_type;location;lat;lon;timestamp;temperature;humidity
15184;DHT22;7693;49.266;7.104;2022-11-11T06:03:27;6.30;99.90
15184;DHT22;7693;49.266;7.104;2022-11-11T06:05:53;6.30;99.90
15184;DHT22;7693;49.266;7.104;2022-11-11T06:08:18;6.30;99.90
15184;DHT22;7693;49.266;7.104;2022-11-11T06:10:44;6.40;99.90
15184;DHT22;7693;49.266;7.104;2022-11-11T06:13:09;6.30;99.90
15184;DHT22;7693;49.266;7.104;2022-11-11T06:15:36;6.40;99.90
15184;DHT22;7693;49.266;7.104;2022-11-11T06:18:03;6.40;99.90
15184;DHT22;7693;49.266;7.104;2022-11-11T06:20:29;6.40;99.90
15184;DHT22;7693;49.266;7.104;2022-11-11T06:22:56;6.40;99.90
15184;DHT22;7693;49.266;7.104;2022-11-11T06:25:26;6.50;99.90
15184;DHT22;7693;49.266;7.104;2022-11-11T06:28:10;6.40;99.90
15184;DHT22;7693;49.266;7.104;2022-11-11T06:30:37;6.40;99.90
15184;DHT22;7693;49.266;7.104;2022-11-11T06:33:03;6.40;99.90
15184;DHT22;7693;49.266;7.104;2022-11-11T06:35:29;6.30;99.90
15184;DHT22;7693;49.266;7.104;2022-11-11T06:37:54;6.30;99.90
15184;DHT22;7693;49.266;7.104;2022-11-11T06:40:20;6.40;99.90
15184;DHT22;7693;49.266;7.104;2022-11-11T06:42:48;6.40;99.90
15184;DHT22;7693;49.266;7.104;2022-11-11T06:45:14;6.50;99.90
15184;DHT22;7693;49.266;7.104;2022-11-11T06:47:41;6.50;99.90
15184;DHT22;7693;49.266;7.104;2022-11-11T06:50:07;6.60;99.90
15184;DHT22;7693;49.266;7.104;2022-11-11T06:52:33;6.60;99.90
15184;DHT22;7693;49.266;7.104;2022-11-11T06:54:58;6.60;99.90
15184;DHT22;7693;49.266;7.104;2022-11-11T06:57:24;6.60;99.90
15184;DHT22;7693;49.266;7.104;2022-11-11T06:59:49;6.60;99.90
15184;DHT22;7693;49.266;7.104;2022-11-11T07:02:15;6.60;99.90
15184;DHT22;7693;49.266;7.104;2022-11-11T07:04:40;6.60;99.90
15184;DHT22;7693;49.266;7.104;2022-11-11T07:07:06;6.60;99.90
15184;DHT22;7693;49.266;7.104;2022-11-11T07:09:31;6.60;99.90
15184;DHT22;7693;49.266;7.104;2022-11-11T07:11:57;6.60;99.90
15184;DHT22;7693;49.266;7.104;2022-11-11T07:14:23;6.60;99.90
15184;DHT22;7693;49.266;7.104;2022-11-11T07:16:49;6.60;99.90
15184;DHT22;7693;49.266;7.104;2022-11-11T07:19:14;6.60;99.90
15184;DHT22;7693;49.266;7.104;2022-11-11T07:21:40;6.60;99.90
15184;DHT22;7693;49.266;7.104;2022-11-11T07:24:06;6.60;99.90
15184;DHT22;7693;49.266;7.104;2022-11-11T07:26:31;6.60;99.90
15184;DHT22;7693;49.266;7.104;2022-11-11T07:28:57;6.60;99.90
15184;DHT22;7693;49.266;7.104;2022-11-11T07:31:22;6.60;99.90
15184;DHT22;7693;49.266;7.104;2022-11-11T07:33:48;6.70;99.90
15184;DHT22;7693;49.266;7.104;2022-11-11T07:36:13;6.70;99.90
15184;DHT22;7693;49.266;7.104;2022-11-11T07:38:39;6.70;99.90
15184;DHT22;7693;49.266;7.104;2022-11-11T07:41:05;6.70;99.90
15184;DHT22;7693;49.266;7.104;2022-11-11T07:43:30;6.80;99.90
15184;DHT22;7693;49.266;7.104;2022-11-11T07:45:56;6.80;99.90
15184;DHT22;7693;49.266;7.104;2022-11-11T07:48:21;6.80;99.90
15184;DHT22;7693;49.266;7.104;2022-11-11T07:50:47;6.70;99.90
15184;DHT22;7693;49.266;7.104;2022-11-11T07:53:12;6.70;99.90
15184;DHT22;7693;49.266;7.104;2022-11-11T07:55:38;6.70;99.90
15184;DHT22;7693;49.266;7.104;2022-11-11T07:58:04;6.70;99.90
15184;DHT22;7693;49.266;7.104;2022-11-11T08:00:31;6.70;99.90
15184;DHT22;7693;49.266;7.104;2022-11-11T08:02:56;6.70;99.90
15184;DHT22;7693;49.266;7.104;2022-11-11T08:05:22;6.70;99.90
15184;DHT22;7693;49.266;7.104;2022-11-11T08:07:47;6.70;99.90
15184;DHT22;7693;49.266;7.104;2022-11-11T08:10:14;6.80;99.90
15184;DHT22;7693;49.266;7.104;2022-11-11T08:12:39;6.80;99.90
15184;DHT22;7693;49.266;7.104;2022-11-11T08:15:23;6.80;99.90
15184;DHT22;7693;49.266;7.104;2022-11-11T08:17:49;6.90;99.90
15184;DHT22;7693;49.266;7.104;2022-11-11T08:20:14;7.00;99.90
15184;DHT22;7693;49.266;7.104;2022-11-11T08:22:41;6.90;99.90
15184;DHT22;7693;49.266;7.104;2022-11-11T08:25:09;7.00;99.90
15184;DHT22;7693;49.266;7.104;2022-11-11T08:27:34;7.00;99.90
15184;DHT22;7693;49.266;7.104;2022-11-11T08:30:00;7.10;99.90
15184;DHT22;7693;49.266;7.104;2022-11-11T08:32:26;7.10;99.90
15184;DHT22;7693;49.266;7.104;2022-11-11T08:34:52;7.10;99.90
15184;DHT22;7693;49.266;7.104;2022-11-11T08:37:17;7.10;99.90
15184;DHT22;7693;49.266;7.104;2022-11-11T08:39:43;7.20;99.90
15184;DHT22;7693;49.266;7.104;2022-11-11T08:42:08;7.20;99.90
15184;DHT22;7693;49.266;7.104;2022-11-11T08:44:34;7.20;99.90
15184;DHT22;7693;49.266;7.104;2022-11-11T08:47:00;7.20;99.90
15184;DHT22;7693;49.266;7.104;2022-11-11T08:49:25;7.20;99.90
15184;DHT22;7693;49.266;7.104;2022-11-11T08:51:51;7.30;99.90
15184;DHT22;7693;49.266;7.104;2022-11-11T08:54:16;7.30;99.90
15184;DHT22;7693;49.266;7.104;2022-11-11T08:56:42;7.40;99.90
15184;DHT22;7693;49.266;7.104;2022-11-11T08:59:08;7.40;99.90
15184;DHT22;7693;49.266;7.104;2022-11-11T09:01:34;7.40;99.90
15184;DHT22;7693;49.266;7.104;2022-11-11T09:04:00;7.50;99.90
15184;DHT22;7693;49.266;7.104;2022-11-11T09:06:27;7.50;99.90
15184;DHT22;7693;49.266;7.104;2022-11-11T09:08:53;7.60;99.90
15184;DHT22;7693;49.266;7.104;2022-11-11T09:11:19;7.60;99.90
15184;DHT22;7693;49.266;7.104;2022-11-11T09:13:48;7.70;99.90
15184;DHT22;7693;49.266;7.104;2022-11-11T09:16:13;7.80;99.90
15184;DHT22;7693;49.266;7.104;2022-11-11T09:18:39;7.90;99.90
15184;DHT22;7693;49.266;7.104;2022-11-11T09:21:05;7.90;99.90
15184;DHT22;7693;49.266;7.104;2022-11-11T09:23:31;7.90;99.90
15184;DHT22;7693;49.266;7.104;2022-11-11T09:25:59;8.00;99.90
15184;DHT22;7693;49.266;7.104;2022-11-11T09:28:29;8.00;99.90
15184;DHT22;7693;49.266;7.104;2022-11-11T09:30:54;8.00;99.90
15184;DHT22;7693;49.266;7.104;2022-11-11T09:33:20;8.00;99.90
15184;DHT22;7693;49.266;7.104;2022-11-11T09:35:45;8.10;99.90
15184;DHT22;7693;49.266;7.104;2022-11-11T09:38:11;8.10;99.90
15184;DHT22;7693;49.266;7.104;2022-11-11T09:43:35;8.20;99.90
15184;DHT22;7693;49.266;7.104;2022-11-11T09:46:17;8.20;99.90
15184;DHT22;7693;49.266;7.104;2022-11-11T09:58:09;8.30;99.90
15184;DHT22;7693;49.266;7.104;2022-11-11T10:00:31;8.40;99.90
15184;DHT22;7693;49.266;7.104;2022-11-11T10:05:56;8.50;99.90
15184;DHT22;7693;49.266;7.104;2022-11-11T10:11:02;8.50;99.90
15184;DHT22;7693;49.266;7.104;2022-11-11T10:13:31;8.50;99.90
15184;DHT22;7693;49.266;7.104;2022-11-11T10:21:44;8.60;99.90
15184;DHT22;7693;49.266;7.104;2022-11-11T10:24:16;8.50;99.90
15184;DHT22;7693;49.266;7.104;2022-11-11T10:26:44;8.50;99.90
15184;DHT22;7693;49.266;7.104;2022-11-11T10:29:20;8.60;99.90
15184;DHT22;7693;49.266;7.104;2022-11-11T10:32:00;8.60;99.90
15184;DHT22;7693;49.266;7.104;2022-11-11T10:34:32;8.70;99.90
15184;DHT22;7693;49.266;7.104;2022-11-11T10:36:58;8.70;99.90
15184;DHT22;7693;49.266;7.104;2022-11-11T10:42:15;8.70;99.90
15184;DHT22;7693;49.266;7.104;2022-11-11T10:44:42;8.80;99.90
15184;DHT22;7693;49.266;7.104;2022-11-11T10:47:16;8.80;99.90
15184;DHT22;7693;49.266;7.104;2022-11-11T10:55:45;8.90;99.90
15184;DHT22;7693;49.266;7.104;2022-11-11T14:01:05;9.60;99.90
15184;DHT22;7693;49.266;7.104;2022-11-11T14:03:56;9.60;99.90
15184;DHT22;7693;49.266;7.104;2022-11-11T14:13:51;9.60;99.90
15184;DHT22;7693;49.266;7.104;2022-11-11T14:22:26;9.60;99.90
15184;DHT22;7693;49.266;7.104;2022-11-11T14:24:52;9.60;99.90
15184;DHT22;7693;49.266;7.104;2022-11-11T14:27:23;9.60;99.90
15184;DHT22;7693;49.266;7.104;2022-11-11T16:04:20;9.30;99.90
15184;DHT22;7693;49.266;7.104;2022-11-11T16:06:47;9.20;99.90
15184;DHT22;7693;49.266;7.104;2022-11-11T16:09:18;9.30;99.90
15184;DHT22;7693;49.266;7.104;2022-11-11T16:11:46;9.20;99.90
15184;DHT22;7693;49.266;7.104;2022-11-11T16:14:31;9.20;99.90
15184;DHT22;7693;49.266;7.104;2022-11-11T16:17:01;9.20;99.90
15184;DHT22;7693;49.266;7.104;2022-11-11T16:19:35;9.20;99.90
15184;DHT22;7693;49.266;7.104;2022-11-11T16:22:25;9.20;99.90
15184;DHT22;7693;49.266;7.104;2022-11-11T16:24:54;9.20;99.90
15184;DHT22;7693;49.266;7.104;2022-11-11T16:27:25;9.20;99.90
15184;DHT22;7693;49.266;7.104;2022-11-11T16:29:51;9.20;99.90
15184;DHT22;7693;49.266;7.104;2022-11-11T16:34:48;9.10;99.90
15184;DHT22;7693;49.266;7.104;2022-11-11T16:37:15;9.10;99.90
15184;DHT22;7693;49.266;7.104;2022-11-11T16:39:42;9.10;99.90
15184;DHT22;7693;49.266;7.104;2022-11-11T16:42:18;9.10;99.90
15184;DHT22;7693;49.266;7.104;2022-11-11T16:45:00;9.10;99.90
15184;DHT22;7693;49.266;7.104;2022-11-11T16:55:20;9.10;99.90
15184;DHT22;7693;49.266;7.104;2022-11-11T16:57:47;9.00;99.90
15184;DHT22;7693;49.266;7.104;2022-11-11T17:00:16;9.00;99.90
15184;DHT22;7693;49.266;7.104;2022-11-11T17:02:43;9.00;99.90
15184;DHT22;7693;49.266;7.104;2022-11-11T17:05:09;9.00;99.90
15184;DHT22;7693;49.266;7.104;2022-11-11T19:25:23;8.00;99.90
15184;DHT22;7693;49.266;7.104;2022-11-11T19:27:51;8.00;99.90
15184;DHT22;7693;49.266;7.104;2022-11-11T19:30:17;8.10;99.90
15184;DHT22;7693;49.266;7.104;2022-11-11T19:32:43;8.10;99.90
15184;DHT22;7693;49.266;7.104;2022-11-11T19:35:08;8.10;99.90
15184;DHT22;7693;49.266;7.104;2022-11-11T19:37:34;8.20;99.90
15184;DHT22;7693;49.266;7.104;2022-11-11T19:39:59;8.20;99.90
15184;DHT22;7693;49.266;7.104;2022-11-11T19:42:25;8.20;99.90
15184;DHT22;7693;49.266;7.104;2022-11-11T19:44:50;8.20;99.90
15184;DHT22;7693;49.266;7.104;2022-11-11T19:47:16;8.20;99.90
15184;DHT22;7693;49.266;7.104;2022-11-11T19:49:42;8.20;99.90
15184;DHT22;7693;49.266;7.104;2022-11-11T19:52:08;8.20;99.90
15184;DHT22;7693;49.266;7.104;2022-11-11T19:54:33;8.10;99.90
15184;DHT22;7693;49.266;7.104;2022-11-11T19:56:59;8.20;99.90
15184;DHT22;7693;49.266;7.104;2022-11-11T19:59:24;8.20;99.90
15184;DHT22;7693;49.266;7.104;2022-11-11T20:01:51;8.30;99.90
15184;DHT22;7693;49.266;7.104;2022-11-11T20:04:17;8.20;99.90
15184;DHT22;7693;49.266;7.104;2022-11-11T20:06:42;8.20;99.90
15184;DHT22;7693;49.266;7.104;2022-11-11T20:09:08;8.20;99.90
15184;DHT22;7693;49.266;7.104;2022-11-11T20:11:35;8.20;99.90
15184;DHT22;7693;49.266;7.104;2022-11-11T20:14:04;8.20;99.90
15184;DHT22;7693;49.266;7.104;2022-11-11T20:16:29;8.20;99.90
15184;DHT22;7693;49.266;7.104;2022-11-11T20:18:56;8.20;99.90
15184;DHT22;7693;49.266;7.104;2022-11-11T20:21:22;8.10;99.90
15184;DHT22;7693;49.266;7.104;2022-11-11T20:23:48;8.10;99.90
15184;DHT22;7693;49.266;7.104;2022-11-11T20:26:15;8.10;99.90
15184;DHT22;7693;49.266;7.104;2022-11-11T20:28:41;8.10;99.90
15184;DHT22;7693;49.266;7.104;2022-11-11T20:31:17;8.00;99.90
15184;DHT22;7693;49.266;7.104;2022-11-11T20:33:43;8.00;99.90
15184;DHT22;7693;49.266;7.104;2022-11-11T20:36:11;8.10;99.90
15184;DHT22;7693;49.266;7.104;2022-11-11T20:38:38;8.10;99.90
15184;DHT22;7693;49.266;7.104;2022-11-11T20:41:05;8.10;99.90
15184;DHT22;7693;49.266;7.104;2022-11-11T20:43:33;8.10;99.90
15184;DHT22;7693;49.266;7.104;2022-11-11T20:48:31;8.20;99.90
15184;DHT22;7693;49.266;7.104;2022-11-11T20:51:11;8.20;99.90
15184;DHT22;7693;49.266;7.104;2022-11-11T20:53:38;8.20;99.90
15184;DHT22;7693;49.266;7.104;2022-11-11T20:56:07;8.20;99.90
15184;DHT22;7693;49.266;7.104;2022-11-11T20:58:34;8.20;99.90
15184;DHT22;7693;49.266;7.104;2022-11-11T21:01:02;8.20;99.90
15184;DHT22;7693;49.266;7.104;2022-11-11T21:03:28;8.20;99.90
15184;DHT22;7693;49.266;7.104;2022-11-11T21:06:07;8.20;99.90
15184;DHT22;7693;49.266;7.104;2022-11-11T21:08:34;8.20;99.90
15184;DHT22;7693;49.266;7.104;2022-11-11T21:11:01;8.20;99.90
15184;DHT22;7693;49.266;7.104;2022-11-11T21:13:28;8.20;99.90
15184;DHT22;7693;49.266;7.104;2022-11-11T21:16:04;8.20;99.90
15184;DHT22;7693;49.266;7.104;2022-11-11T21:18:31;8.20;99.90
15184;DHT22;7693;49.266;7.104;2022-11-11T21:20:56;8.20;99.90
15184;DHT22;7693;49.266;7.104;2022-11-11T21:23:22;8.20;99.90
15184;DHT22;7693;49.266;7.104;2022-11-11T21:25:47;8.20;99.90
15184;DHT22;7693;49.266;7.104;2022-11-11T21:28:13;8.20;99.90
15184;DHT22;7693;49.266;7.104;2022-11-11T21:30:38;8.20;99.90
15184;DHT22;7693;49.266;7.104;2022-11-11T21:33:04;8.20;99.90
15184;DHT22;7693;49.266;7.104;2022-11-11T21:35:32;8.20;99.90
15184;DHT22;7693;49.266;7.104;2022-11-11T21:37:58;8.20;99.90
15184;DHT22;7693;49.266;7.104;2022-11-11T21:40:24;8.20;99.90
15184;DHT22;7693;49.266;7.104;2022-11-11T21:42:49;8.30;99.90
15184;DHT22;7693;49.266;7.104;2022-11-11T21:45:15;8.20;99.90
15184;DHT22;7693;49.266;7.104;2022-11-11T21:47:40;8.20;99.90
15184;DHT22;7693;49.266;7.104;2022-11-11T21:50:06;8.20;99.90
15184;DHT22;7693;49.266;7.104;2022-11-11T21:52:32;8.10;99.90
15184;DHT22;7693;49.266;7.104;2022-11-11T21:54:57;8.10;99.90
15184;DHT22;7693;49.266;7.104;2022-11-11T21:57:23;8.10;99.90
15184;DHT22;7693;49.266;7.104;2022-11-11T21:59:48;8.10;99.90
15184;DHT22;7693;49.266;7.104;2022-11-11T22:02:14;8.10;99.90
15184;DHT22;7693;49.266;7.104;2022-11-11T22:04:40;8.10;99.90
15184;DHT22;7693;49.266;7.104;2022-11-11T22:07:05;8.10;99.90
15184;DHT22;7693;49.266;7.104;2022-11-11T22:09:31;8.20;99.90
15184;DHT22;7693;49.266;7.104;2022-11-11T22:11:56;8.20;99.90
15184;DHT22;7693;49.266;7.104;2022-11-11T22:14:22;8.10;99.90
15184;DHT22;7693;49.266;7.104;2022-11-11T22:16:48;8.20;99.90
